sensor_id;sensor_type;location;lat;lon;timestamp;pressure;altitude;pressure_sealevel;temperature;humidity
3260;BME280;22469;48.150;14.004;2022-11-20T00:01:22;97551.72;;;5.73;69.28
3260;BME280;22469;48.150;14.004;2022-11-20T00:03:53;97549.22;;;5.72;69.16
3260;BME280;22469;48.150;14.004;2022-11-20T00:06:22;97541.59;;;5.72;69.53
3260;BME280;22469;48.150;14.004;2022-11-20T00:08:49;97544.94;;;5.74;69.95
3260;BME280;22469;48.150;14.004;2022-11-20T00:11:18;97548.28;;;5.76;70.08
3260;BME280;22469;48.150;14.004;2022-11-20T00:13:49;97554.97;;;5.81;70.19
3260;BME280;22469;48.150;14.004;2022-11-20T00:16:19;97555.75;;;5.83;69.79
3260;BME280;22469;48.150;14.004;2022-11-20T00:18:49;97548.13;;;5.83;69.45
3260;BME280;22469;48.150;14.004;2022-11-20T00:21:21;97548.91;;;5.87;69.49
3260;BME280;22469;48.150;14.004;2022-11-20T00:23:51;97543.88;;;5.84;69.96
3260;BME280;22469;48.150;14.004;2022-11-20T00:26:22;97553.31;;;5.79;69.64
3260;BME280;22469;48.150;14.004;2022-11-20T00:28:52;97558.44;;;5.77;69.31
3260;BME280;22469;48.150;14.004;2022-11-20T00:31:21;97545.81;;;5.73;69.32
3260;BME280;22469;48.150;14.004;2022-11-20T00:33:48;97554.34;;;5.70;69.52
3260;BME280;22469;48.150;14.004;2022-11-20T00:36:24;97551.78;;;5.70;69.67
3260;BME280;22469;48.150;14.004;2022-11-20T00:38:53;97552.66;;;5.69;69.73
3260;BME280;22469;48.150;14.004;2022-11-20T00:41:22;97552.63;;;5.70;70.67
3260;BME280;22469;48.150;14.004;2022-11-20T00:43:52;97553.50;;;5.71;70.25
3260;BME280;22469;48.150;14.004;2022-11-20T00:46:23;97559.41;;;5.72;69.85
3260;BME280;22469;48.150;14.004;2022-11-20T00:48:52;97567.00;;;5.73;69.70
3260;BME280;22469;48.150;14.004;2022-11-20T00:51:21;97562.78;;;5.72;69.65
3260;BME280;22469;48.150;14.004;2022-11-20T00:53:50;97570.38;;;5.75;69.78
3260;BME280;22469;48.150;14.004;2022-11-20T00:56:18;97563.47;;;5.80;69.64
3260;BME280;22469;48.150;14.004;2022-11-20T00:58:47;97566.97;;;5.75;69.43
3260;BME280;22469;48.150;14.004;2022-11-20T01:01:20;97562.72;;;5.75;69.63
3260;BME280;22469;48.150;14.004;2022-11-20T01:03:55;97561.84;;;5.76;70.35
3260;BME280;22469;48.150;14.004;2022-11-20T01:06:32;97566.06;;;5.79;70.31
3260;BME280;22469;48.150;14.004;2022-11-20T01:09:03;97567.75;;;5.78;70.37
3260;BME280;22469;48.150;14.004;2022-11-20T01:11:36;97570.16;;;5.84;70.08
3260;BME280;22469;48.150;14.004;2022-11-20T01:14:06;97569.44;;;5.79;69.84
3260;BME280;22469;48.150;14.004;2022-11-20T01:16:40;97573.63;;;5.82;69.95
3260;BME280;22469;48.150;14.004;2022-11-20T01:19:17;97571.91;;;5.82;70.20
3260;BME280;22469;48.150;14.004;2022-11-20T01:21:52;97565.16;;;5.81;70.17
3260;BME280;22469;48.150;14.004;2022-11-20T01:24:21;97569.38;;;5.82;70.13
3260;BME280;22469;48.150;14.004;2022-11-20T01:26:50;97578.66;;;5.85;70.34
3260;BME280;22469;48.150;14.004;2022-11-20T01:29:21;97569.25;;;5.87;69.81
3260;BME280;22469;48.150;14.004;2022-11-20T01:31:51;97564.94;;;5.90;70.19
3260;BME280;22469;48.150;14.004;2022-11-20T01:34:20;97574.28;;;5.90;69.97
3260;BME280;22469;48.150;14.004;2022-11-20T01:36:50;97575.94;;;5.94;70.02
3260;BME280;22469;48.150;14.004;2022-11-20T01:39:21;97567.44;;;5.95;70.21
3260;BME280;22469;48.150;14.004;2022-11-20T01:41:51;97569.94;;;5.97;70.26
3260;BME280;22469;48.150;14.004;2022-11-20T01:44:59;97565.63;;;6.00;69.90
3260;BME280;22469;48.150;14.004;2022-11-20T01:50:17;97557.06;;;6.04;69.84
3260;BME280;22469;48.150;14.004;2022-11-20T01:52:58;97563.84;;;6.05;69.31
3260;BME280;22469;48.150;14.004;2022-11-20T01:55:31;97566.47;;;6.01;69.23
3260;BME280;22469;48.150;14.004;2022-11-20T01:58:02;97563.91;;;6.01;69.14
3260;BME280;22469;48.150;14.004;2022-11-20T02:00:29;97558.00;;;6.00;69.13
3260;BME280;22469;48.150;14.004;2022-11-20T02:03:00;97566.44;;;6.02;69.80
3260;BME280;22469;48.150;14.004;2022-11-20T02:05:46;97561.31;;;6.04;69.72
3260;BME280;22469;48.150;14.004;2022-11-20T02:08:19;97560.47;;;6.03;69.36
3260;BME280;22469;48.150;14.004;2022-11-20T02:10:46;97558.78;;;6.04;69.85
3260;BME280;22469;48.150;14.004;2022-11-20T02:13:13;97552.84;;;6.03;70.10
3260;BME280;22469;48.150;14.004;2022-11-20T02:16:00;97555.34;;;6.05;69.65
3260;BME280;22469;48.150;14.004;2022-11-20T02:18:28;97559.59;;;6.06;69.88
3260;BME280;22469;48.150;14.004;2022-11-20T02:21:09;97555.28;;;6.08;69.80
3260;BME280;22469;48.150;14.004;2022-11-20T02:24:00;97557.81;;;6.09;70.28
3260;BME280;22469;48.150;14.004;2022-11-20T02:26:35;97560.38;;;6.08;69.77
3260;BME280;22469;48.150;14.004;2022-11-20T02:29:07;97560.28;;;6.12;69.92
3260;BME280;22469;48.150;14.004;2022-11-20T02:31:40;97570.31;;;6.18;69.75
3260;BME280;22469;48.150;14.004;2022-11-20T02:34:08;97552.47;;;6.20;69.93
3260;BME280;22469;48.150;14.004;2022-11-20T02:36:38;97557.44;;;6.26;69.58
3260;BME280;22469;48.150;14.004;2022-11-20T02:39:08;97561.66;;;6.27;69.45
3260;BME280;22469;48.150;14.004;2022-11-20T02:41:37;97570.19;;;6.25;69.17
3260;BME280;22469;48.150;14.004;2022-11-20T02:44:05;97567.69;;;6.23;69.10
3260;BME280;22469;48.150;14.004;2022-11-20T02:46:33;97561.78;;;6.21;69.26
3260;BME280;22469;48.150;14.004;2022-11-20T02:49:03;97560.88;;;6.24;69.25
3260;BME280;22469;48.150;14.004;2022-11-20T02:51:31;97550.78;;;6.21;69.47
3260;BME280;22469;48.150;14.004;2022-11-20T02:53:59;97557.63;;;6.17;69.40
3260;BME280;22469;48.150;14.004;2022-11-20T02:56:26;97552.50;;;6.18;69.72
3260;BME280;22469;48.150;14.004;2022-11-20T02:58:53;97537.22;;;6.18;69.54
3260;BME280;22469;48.150;14.004;2022-11-20T03:01:21;97544.03;;;6.18;69.92
3260;BME280;22469;48.150;14.004;2022-11-20T03:03:48;97540.66;;;6.17;69.96
3260;BME280;22469;48.150;14.004;2022-11-20T03:06:16;97537.31;;;6.15;69.94
3260;BME280;22469;48.150;14.004;2022-11-20T03:08:43;97550.91;;;6.14;69.65
3260;BME280;22469;48.150;14.004;2022-11-20T03:11:10;97550.06;;;6.14;69.98
3260;BME280;22469;48.150;14.004;2022-11-20T03:13:37;97554.22;;;6.18;70.17
3260;BME280;22469;48.150;14.004;2022-11-20T03:16:10;97562.63;;;6.22;70.15
3260;BME280;22469;48.150;14.004;2022-11-20T03:18:40;97561.84;;;6.20;70.18
3260;BME280;22469;48.150;14.004;2022-11-20T03:21:09;97555.03;;;6.20;70.37
3260;BME280;22469;48.150;14.004;2022-11-20T03:23:37;97558.34;;;6.24;70.17
3260;BME280;22469;48.150;14.004;2022-11-20T03:28:46;97561.84;;;6.20;69.83
3260;BME280;22469;48.150;14.004;2022-11-20T03:31:20;97561.78;;;6.21;70.00
3260;BME280;22469;48.150;14.004;2022-11-20T03:33:51;97565.22;;;6.20;70.09
3260;BME280;22469;48.150;14.004;2022-11-20T03:36:20;97568.59;;;6.21;70.29
3260;BME280;22469;48.150;14.004;2022-11-20T03:38:48;97575.41;;;6.20;70.05
3260;BME280;22469;48.150;14.004;2022-11-20T03:41:18;97572.84;;;6.20;69.94
3260;BME280;22469;48.150;14.004;2022-11-20T03:43:51;97578.72;;;6.22;69.89
3260;BME280;22469;48.150;14.004;2022-11-20T03:46:23;97579.63;;;6.21;70.20
3260;BME280;22469;48.150;14.004;2022-11-20T03:48:51;97581.31;;;6.21;69.91
3260;BME280;22469;48.150;14.004;2022-11-20T03:51:24;97582.97;;;6.23;70.19
3260;BME280;22469;48.150;14.004;2022-11-20T03:53:59;97582.16;;;6.23;69.67
3260;BME280;22469;48.150;14.004;2022-11-20T03:56:31;97574.66;;;6.15;70.17
3260;BME280;22469;48.150;14.004;2022-11-20T03:59:00;97578.13;;;6.11;69.93
3260;BME280;22469;48.150;14.004;2022-11-20T04:01:31;97573.88;;;6.11;70.21
3260;BME280;22469;48.150;14.004;2022-11-20T04:03:59;97563.72;;;6.10;70.36
3260;BME280;22469;48.150;14.004;2022-11-20T04:06:29;97557.69;;;6.14;70.11
3260;BME280;22469;48.150;14.004;2022-11-20T04:08:59;97553.50;;;6.13;70.15
3260;BME280;22469;48.150;14.004;2022-11-20T04:11:29;97553.50;;;6.13;70.34
3260;BME280;22469;48.150;14.004;2022-11-20T04:14:02;97557.69;;;6.15;70.37
3260;BME280;22469;48.150;14.004;2022-11-20T04:16:34;97547.50;;;6.14;70.39
3260;BME280;22469;48.150;14.004;2022-11-20T04:19:04;97557.59;;;6.18;70.46
3260;BME280;22469;48.150;14.004;2022-11-20T04:21:32;97557.59;;;6.18;70.34
3260;BME280;22469;48.150;14.004;2022-11-20T04:24:00;97555.91;;;6.19;69.86
3260;BME280;22469;48.150;14.004;2022-11-20T04:26:28;97554.31;;;6.13;70.31
3260;BME280;22469;48.150;14.004;2022-11-20T04:28:56;97552.66;;;6.12;70.09
3260;BME280;22469;48.150;14.004;2022-11-20T04:31:27;97560.28;;;6.12;70.15
3260;BME280;22469;48.150;14.004;2022-11-20T04:33:55;97560.28;;;6.12;70.34
3260;BME280;22469;48.150;14.004;2022-11-20T04:36:27;97558.59;;;6.13;70.35
3260;BME280;22469;48.150;14.004;2022-11-20T04:38:56;97551.66;;;6.18;70.40
3260;BME280;22469;48.150;14.004;2022-11-20T04:41:28;97551.66;;;6.18;70.46
3260;BME280;22469;48.150;14.004;2022-11-20T04:43:59;97553.44;;;6.14;70.55
3260;BME280;22469;48.150;14.004;2022-11-20T04:46:33;97550.06;;;6.14;70.45
3260;BME280;22469;48.150;14.004;2022-11-20T04:49:02;97554.31;;;6.13;70.43
3260;BME280;22469;48.150;14.004;2022-11-20T04:51:31;97556.94;;;6.10;70.43
3260;BME280;22469;48.150;14.004;2022-11-20T04:53:58;97561.13;;;6.13;70.81
3260;BME280;22469;48.150;14.004;2022-11-20T04:56:25;97557.75;;;6.12;70.49
3260;BME280;22469;48.150;14.004;2022-11-20T04:58:52;97556.13;;;6.08;70.30
3260;BME280;22469;48.150;14.004;2022-11-20T05:01:22;97551.94;;;6.06;70.78
3260;BME280;22469;48.150;14.004;2022-11-20T05:03:50;97557.81;;;6.09;70.68
3260;BME280;22469;48.150;14.004;2022-11-20T05:06:20;97568.81;;;6.10;70.75
3260;BME280;22469;48.150;14.004;2022-11-20T05:08:47;97563.75;;;6.08;70.63
3260;BME280;22469;48.150;14.004;2022-11-20T05:11:18;97567.22;;;6.06;70.55
3260;BME280;22469;48.150;14.004;2022-11-20T05:13:47;97575.75;;;6.03;70.61
3260;BME280;22469;48.150;14.004;2022-11-20T05:16:22;97574.84;;;6.06;70.69
3260;BME280;22469;48.150;14.004;2022-11-20T05:18:52;97572.31;;;6.06;70.64
3260;BME280;22469;48.150;14.004;2022-11-20T05:21:21;97564.81;;;5.98;70.65
3260;BME280;22469;48.150;14.004;2022-11-20T05:23:48;97566.53;;;5.98;70.58
3260;BME280;22469;48.150;14.004;2022-11-20T05:26:18;97560.72;;;5.92;71.13
3260;BME280;22469;48.150;14.004;2022-11-20T05:28:49;97564.91;;;5.95;70.86
3260;BME280;22469;48.150;14.004;2022-11-20T05:31:22;97564.09;;;5.93;70.71
3260;BME280;22469;48.150;14.004;2022-11-20T05:33:55;97560.69;;;5.91;70.76
3260;BME280;22469;48.150;14.004;2022-11-20T05:36:23;97563.22;;;5.94;70.59
3260;BME280;22469;48.150;14.004;2022-11-20T05:38:51;97562.31;;;5.97;70.58
3260;BME280;22469;48.150;14.004;2022-11-20T05:41:25;97564.81;;;6.00;70.57
3260;BME280;22469;48.150;14.004;2022-11-20T05:43:52;97568.25;;;5.97;70.44
3260;BME280;22469;48.150;14.004;2022-11-20T05:46:20;97568.19;;;6.00;70.56
3260;BME280;22469;48.150;14.004;2022-11-20T05:48:55;97568.19;;;6.00;70.53
3260;BME280;22469;48.150;14.004;2022-11-20T05:51:24;97566.41;;;6.04;70.33
3260;BME280;22469;48.150;14.004;2022-11-20T05:53:52;97570.63;;;6.05;70.37
3260;BME280;22469;48.150;14.004;2022-11-20T05:56:20;97571.38;;;6.10;70.54
3260;BME280;22469;48.150;14.004;2022-11-20T05:58:49;97569.63;;;6.12;70.47
3260;BME280;22469;48.150;14.004;2022-11-20T06:01:21;97576.41;;;6.11;70.08
3260;BME280;22469;48.150;14.004;2022-11-20T06:03:50;97562.84;;;6.11;70.15
3260;BME280;22469;48.150;14.004;2022-11-20T06:06:19;97573.88;;;6.11;70.18
3260;BME280;22469;48.150;14.004;2022-11-20T06:08:48;97567.88;;;6.15;70.68
3260;BME280;22469;48.150;14.004;2022-11-20T06:11:16;97567.13;;;6.10;70.59
3260;BME280;22469;48.150;14.004;2022-11-20T06:13:44;97570.47;;;6.12;70.49
3260;BME280;22469;48.150;14.004;2022-11-20T06:16:14;97570.41;;;6.15;70.94
3260;BME280;22469;48.150;14.004;2022-11-20T06:18:43;97574.63;;;6.16;70.48
3260;BME280;22469;48.150;14.004;2022-11-20T06:21:20;97572.78;;;6.23;70.81
3260;BME280;22469;48.150;14.004;2022-11-20T06:23:51;97572.78;;;6.23;70.90
3260;BME280;22469;48.150;14.004;2022-11-20T06:26:22;97575.28;;;6.26;70.81
3260;BME280;22469;48.150;14.004;2022-11-20T06:28:51;97584.53;;;6.29;71.58
3260;BME280;22469;48.150;14.004;2022-11-20T06:31:20;97586.31;;;6.25;70.68
3260;BME280;22469;48.150;14.004;2022-11-20T06:33:50;97593.06;;;6.28;70.47
3260;BME280;22469;48.150;14.004;2022-11-20T06:36:21;97588.72;;;6.31;70.69
3260;BME280;22469;48.150;14.004;2022-11-20T06:38:48;97586.94;;;6.35;70.62
3260;BME280;22469;48.150;14.004;2022-11-20T06:41:19;97592.81;;;6.38;70.91
3260;BME280;22469;48.150;14.004;2022-11-20T06:43:47;97585.94;;;6.44;71.10
3260;BME280;22469;48.150;14.004;2022-11-20T06:46:16;97588.34;;;6.48;71.22
3260;BME280;22469;48.150;14.004;2022-11-20T06:48:48;97590.00;;;6.51;71.02
3260;BME280;22469;48.150;14.004;2022-11-20T06:51:16;97587.47;;;6.49;70.87
3260;BME280;22469;48.150;14.004;2022-11-20T06:53:43;97585.69;;;6.53;70.44
3260;BME280;22469;48.150;14.004;2022-11-20T06:56:10;97590.00;;;6.51;70.30
3260;BME280;22469;48.150;14.004;2022-11-20T06:58:37;97600.97;;;6.54;70.28
3260;BME280;22469;48.150;14.004;2022-11-20T07:01:11;97594.91;;;6.58;70.36
3260;BME280;22469;48.150;14.004;2022-11-20T07:03:40;97599.94;;;6.61;70.20
3260;BME280;22469;48.150;14.004;2022-11-20T07:06:07;97590.56;;;6.63;70.21
3260;BME280;22469;48.150;14.004;2022-11-20T07:08:35;97594.75;;;6.66;70.56
3260;BME280;22469;48.150;14.004;2022-11-20T07:11:04;97591.34;;;6.65;70.43
3260;BME280;22469;48.150;14.004;2022-11-20T07:13:34;97596.38;;;6.70;70.21
3260;BME280;22469;48.150;14.004;2022-11-20T07:16:04;97597.97;;;6.73;70.17
3260;BME280;22469;48.150;14.004;2022-11-20T07:18:33;97604.78;;;6.74;70.19
3260;BME280;22469;48.150;14.004;2022-11-20T07:21:05;97603.06;;;6.73;70.13
3260;BME280;22469;48.150;14.004;2022-11-20T07:23:34;97609.88;;;6.74;70.17
3260;BME280;22469;48.150;14.004;2022-11-20T07:26:09;97612.44;;;6.74;70.20
3260;BME280;22469;48.150;14.004;2022-11-20T07:28:37;97611.56;;;6.73;70.57
3260;BME280;22469;48.150;14.004;2022-11-20T07:31:05;97614.94;;;6.75;70.53
3260;BME280;22469;48.150;14.004;2022-11-20T07:33:34;97604.72;;;6.75;70.57
3260;BME280;22469;48.150;14.004;2022-11-20T07:36:01;97614.97;;;6.74;70.75
3260;BME280;22469;48.150;14.004;2022-11-20T07:38:29;97609.00;;;6.75;70.68
3260;BME280;22469;48.150;14.004;2022-11-20T07:40:56;97606.31;;;6.81;71.08
3260;BME280;22469;48.150;14.004;2022-11-20T07:43:24;97610.53;;;6.82;71.02
3260;BME280;22469;48.150;14.004;2022-11-20T07:45:51;97601.13;;;6.84;71.08
3260;BME280;22469;48.150;14.004;2022-11-20T07:48:18;97610.41;;;6.86;70.90
3260;BME280;22469;48.150;14.004;2022-11-20T07:50:45;97614.59;;;6.91;70.63
3260;BME280;22469;48.150;14.004;2022-11-20T07:53:12;97621.34;;;6.92;70.57
3260;BME280;22469;48.150;14.004;2022-11-20T07:55:40;97614.59;;;6.91;70.92
3260;BME280;22469;48.150;14.004;2022-11-20T07:58:07;97611.91;;;6.95;71.16
3260;BME280;22469;48.150;14.004;2022-11-20T08:00:34;97616.09;;;6.98;71.21
3260;BME280;22469;48.150;14.004;2022-11-20T08:03:04;97614.28;;;7.03;70.86
3260;BME280;22469;48.150;14.004;2022-11-20T08:05:31;97611.78;;;7.00;71.18
3260;BME280;22469;48.150;14.004;2022-11-20T08:07:59;97607.44;;;7.03;70.80
3260;BME280;22469;48.150;14.004;2022-11-20T08:10:26;97613.38;;;7.04;70.59
3260;BME280;22469;48.150;14.004;2022-11-20T08:12:53;97622.81;;;7.02;70.96
3260;BME280;22469;48.150;14.004;2022-11-20T08:15:39;97616.88;;;7.01;70.62
3260;BME280;22469;48.150;14.004;2022-11-20T08:18:09;97625.34;;;7.02;70.81
3260;BME280;22469;48.150;14.004;2022-11-20T08:20:56;97626.13;;;7.04;70.67
3260;BME280;22469;48.150;14.004;2022-11-20T08:23:23;97629.50;;;7.06;70.58
3260;BME280;22469;48.150;14.004;2022-11-20T08:25:50;97626.81;;;7.12;70.29
3260;BME280;22469;48.150;14.004;2022-11-20T08:28:18;97628.53;;;7.11;70.65
3260;BME280;22469;48.150;14.004;2022-11-20T08:30:49;97631.00;;;7.15;70.64
3260;BME280;22469;48.150;14.004;2022-11-20T08:33:17;97635.16;;;7.19;70.99
3260;BME280;22469;48.150;14.004;2022-11-20T08:35:44;97636.88;;;7.18;70.23
3260;BME280;22469;48.150;14.004;2022-11-20T08:38:11;97642.72;;;7.22;70.54
3260;BME280;22469;48.150;14.004;2022-11-20T08:40:38;97642.66;;;7.23;70.31
3260;BME280;22469;48.150;14.004;2022-11-20T08:43:05;97642.59;;;7.26;70.67
3260;BME280;22469;48.150;14.004;2022-11-20T08:45:32;97642.47;;;7.31;70.93
3260;BME280;22469;48.150;14.004;2022-11-20T08:48:02;97647.41;;;7.39;70.87
3260;BME280;22469;48.150;14.004;2022-11-20T08:50:30;97640.50;;;7.42;70.76
3260;BME280;22469;48.150;14.004;2022-11-20T08:53:06;97629.34;;;7.46;70.33
3260;BME280;22469;48.150;14.004;2022-11-20T08:55:33;97631.81;;;7.49;70.83
3260;BME280;22469;48.150;14.004;2022-11-20T08:58:06;97636.81;;;7.54;70.61
3260;BME280;22469;48.150;14.004;2022-11-20T09:00:33;97634.09;;;7.60;70.71
3260;BME280;22469;48.150;14.004;2022-11-20T09:03:01;97625.41;;;7.67;71.02
3260;BME280;22469;48.150;14.004;2022-11-20T09:05:28;97629.47;;;7.74;70.74
3260;BME280;22469;48.150;14.004;2022-11-20T09:07:56;97628.34;;;7.84;70.81
3260;BME280;22469;48.150;14.004;2022-11-20T09:10:24;97624.88;;;7.87;70.40
3260;BME280;22469;48.150;14.004;2022-11-20T09:12:53;97620.28;;;7.98;70.32
3260;BME280;22469;48.150;14.004;2022-11-20T09:15:22;97625.00;;;8.12;70.13
3260;BME280;22469;48.150;14.004;2022-11-20T09:17:52;97626.34;;;8.25;70.66
3260;BME280;22469;48.150;14.004;2022-11-20T09:20:24;97613.19;;;8.39;70.79
3260;BME280;22469;48.150;14.004;2022-11-20T09:22:52;97614.53;;;8.51;70.54
3260;BME280;22469;48.150;14.004;2022-11-20T09:25:19;97609.78;;;8.68;71.15
3260;BME280;22469;48.150;14.004;2022-11-20T09:27:46;97617.69;;;8.87;71.38
3260;BME280;22469;48.150;14.004;2022-11-20T09:30:15;97605.38;;;8.98;70.29
3260;BME280;22469;48.150;14.004;2022-11-20T09:32:42;97604.28;;;9.06;69.55
3260;BME280;22469;48.150;14.004;2022-11-20T09:35:10;97608.03;;;9.22;69.79
3260;BME280;22469;48.150;14.004;2022-11-20T09:37:38;97597.44;;;9.33;69.58
3260;BME280;22469;48.150;14.004;2022-11-20T09:40:05;97596.84;;;9.51;69.68
3260;BME280;22469;48.150;14.004;2022-11-20T09:48:40;97580.44;;;10.04;67.76
3260;BME280;22469;48.150;14.004;2022-11-20T09:51:57;97569.69;;;10.17;67.91
3260;BME280;22469;48.150;14.004;2022-11-20T09:54:34;97580.75;;;10.41;67.48
3260;BME280;22469;48.150;14.004;2022-11-20T09:57:17;97566.34;;;10.61;66.91
3260;BME280;22469;48.150;14.004;2022-11-20T09:59:50;97573.84;;;10.65;66.56
3260;BME280;22469;48.150;14.004;2022-11-20T10:05:26;97565.63;;;11.00;67.12
3260;BME280;22469;48.150;14.004;2022-11-20T10:08:10;97560.38;;;11.23;67.37
3260;BME280;22469;48.150;14.004;2022-11-20T10:11:10;97552.75;;;11.42;66.69
3260;BME280;22469;48.150;14.004;2022-11-20T10:19:45;97547.19;;;11.72;65.21
3260;BME280;22469;48.150;14.004;2022-11-20T10:30:43;97538.13;;;11.24;62.06
3260;BME280;22469;48.150;14.004;2022-11-20T10:33:16;97540.88;;;10.99;59.88
3260;BME280;22469;48.150;14.004;2022-11-20T10:36:21;97536.22;;;11.08;59.01
3260;BME280;22469;48.150;14.004;2022-11-20T10:38:57;97535.06;;;11.55;60.02
3260;BME280;22469;48.150;14.004;2022-11-20T10:41:32;97529.66;;;11.42;56.65
3260;BME280;22469;48.150;14.004;2022-11-20T10:44:42;97529.97;;;11.34;58.90
3260;BME280;22469;48.150;14.004;2022-11-20T10:47:22;97531.66;;;10.95;56.89
3260;BME280;22469;48.150;14.004;2022-11-20T10:49:54;97532.91;;;10.84;58.11
3260;BME280;22469;48.150;14.004;2022-11-20T10:58:22;97536.25;;;10.86;56.83
3260;BME280;22469;48.150;14.004;2022-11-20T11:01:17;97535.88;;;11.16;57.79
3260;BME280;22469;48.150;14.004;2022-11-20T11:03:46;97532.97;;;11.24;55.83
3260;BME280;22469;48.150;14.004;2022-11-20T11:08:47;97526.78;;;11.09;55.56
3260;BME280;22469;48.150;14.004;2022-11-20T11:11:30;97525.81;;;10.91;56.17
3260;BME280;22469;48.150;14.004;2022-11-20T11:14:09;97522.97;;;10.97;55.61
3260;BME280;22469;48.150;14.004;2022-11-20T11:16:50;97528.28;;;10.72;56.29
3260;BME280;22469;48.150;14.004;2022-11-20T11:19:21;97521.06;;;11.23;55.61
3260;BME280;22469;48.150;14.004;2022-11-20T11:21:54;97522.34;;;11.33;55.96
3260;BME280;22469;48.150;14.004;2022-11-20T11:24:26;97519.34;;;11.62;56.28
3260;BME280;22469;48.150;14.004;2022-11-20T11:27:14;97512.25;;;11.49;55.11
3260;BME280;22469;48.150;14.004;2022-11-20T11:29:45;97518.50;;;11.23;54.83
3260;BME280;22469;48.150;14.004;2022-11-20T11:32:20;97514.53;;;11.34;54.93
3260;BME280;22469;48.150;14.004;2022-11-20T11:35:06;97504.25;;;11.55;54.95
3260;BME280;22469;48.150;14.004;2022-11-20T11:37:49;97503.91;;;11.81;54.47
3260;BME280;22469;48.150;14.004;2022-11-20T11:40:18;97510.47;;;11.70;54.49
3260;BME280;22469;48.150;14.004;2022-11-20T11:42:57;97498.44;;;11.31;53.36
3260;BME280;22469;48.150;14.004;2022-11-20T11:45:27;97492.88;;;11.21;54.35
3260;BME280;22469;48.150;14.004;2022-11-20T11:47:58;97494.00;;;11.34;54.26
3260;BME280;22469;48.150;14.004;2022-11-20T11:50:28;97488.72;;;11.19;54.68
3260;BME280;22469;48.150;14.004;2022-11-20T11:53:21;97489.53;;;11.58;54.12
3260;BME280;22469;48.150;14.004;2022-11-20T11:56:07;97484.97;;;11.65;55.14
3260;BME280;22469;48.150;14.004;2022-11-20T11:58:48;97494.47;;;11.82;54.16
3260;BME280;22469;48.150;14.004;2022-11-20T12:07:15;97483.31;;;12.02;52.92
3260;BME280;22469;48.150;14.004;2022-11-20T12:13:02;97478.00;;;11.88;53.54
3260;BME280;22469;48.150;14.004;2022-11-20T12:15:35;97475.59;;;11.83;52.48
3260;BME280;22469;48.150;14.004;2022-11-20T12:18:09;97477.50;;;11.98;53.60
3260;BME280;22469;48.150;14.004;2022-11-20T12:26:56;97489.81;;;11.71;50.77
3260;BME280;22469;48.150;14.004;2022-11-20T12:37:54;97473.72;;;12.24;52.30
3260;BME280;22469;48.150;14.004;2022-11-20T12:43:31;97469.81;;;11.78;52.93
3260;BME280;22469;48.150;14.004;2022-11-20T12:46:46;97466.66;;;11.92;52.20
3260;BME280;22469;48.150;14.004;2022-11-20T12:55:13;97451.09;;;11.95;51.65
3260;BME280;22469;48.150;14.004;2022-11-20T13:01:00;97444.94;;;12.16;51.08
3260;BME280;22469;48.150;14.004;2022-11-20T13:03:51;97443.00;;;12.21;51.16
3260;BME280;22469;48.150;14.004;2022-11-20T13:06:23;97439.28;;;12.27;50.82
3260;BME280;22469;48.150;14.004;2022-11-20T13:08:56;97446.63;;;12.17;50.75
3260;BME280;22469;48.150;14.004;2022-11-20T13:12:02;97439.88;;;12.15;50.79
3260;BME280;22469;48.150;14.004;2022-11-20T13:14:47;97430.31;;;12.36;51.48
3260;BME280;22469;48.150;14.004;2022-11-20T13:17:37;97428.19;;;12.26;50.95
3260;BME280;22469;48.150;14.004;2022-11-20T13:20:14;97428.63;;;12.17;50.81
3260;BME280;22469;48.150;14.004;2022-11-20T13:22:49;97433.47;;;12.23;51.04
3260;BME280;22469;48.150;14.004;2022-11-20T13:30:36;97424.53;;;12.30;50.58
3260;BME280;22469;48.150;14.004;2022-11-20T13:36:22;97418.88;;;12.24;50.63
3260;BME280;22469;48.150;14.004;2022-11-20T13:38:54;97418.03;;;12.41;50.54
3260;BME280;22469;48.150;14.004;2022-11-20T13:41:31;97417.50;;;12.17;49.90
3260;BME280;22469;48.150;14.004;2022-11-20T13:46:45;97415.53;;;12.04;51.95
3260;BME280;22469;48.150;14.004;2022-11-20T13:49:29;97414.34;;;12.29;51.32
3260;BME280;22469;48.150;14.004;2022-11-20T13:58:04;97400.56;;;12.30;50.86
3260;BME280;22469;48.150;14.004;2022-11-20T14:01:07;97400.72;;;12.27;50.29
3260;BME280;22469;48.150;14.004;2022-11-20T14:03:36;97406.34;;;12.35;50.95
3260;BME280;22469;48.150;14.004;2022-11-20T14:06:38;97406.94;;;12.40;50.89
3260;BME280;22469;48.150;14.004;2022-11-20T14:09:12;97399.59;;;12.32;50.86
3260;BME280;22469;48.150;14.004;2022-11-20T14:11:47;97409.31;;;12.45;51.87
3260;BME280;22469;48.150;14.004;2022-11-20T14:14:23;97412.16;;;12.21;51.30
3260;BME280;22469;48.150;14.004;2022-11-20T14:16:53;97410.72;;;12.33;51.73
3260;BME280;22469;48.150;14.004;2022-11-20T14:19:54;97407.22;;;12.34;50.57
3260;BME280;22469;48.150;14.004;2022-11-20T14:22:26;97404.34;;;12.40;51.09
3260;BME280;22469;48.150;14.004;2022-11-20T14:27:45;97409.59;;;12.39;51.38
3260;BME280;22469;48.150;14.004;2022-11-20T14:30:19;97402.94;;;12.35;51.78
3260;BME280;22469;48.150;14.004;2022-11-20T14:32:52;97404.44;;;12.39;52.33
3260;BME280;22469;48.150;14.004;2022-11-20T14:35:27;97403.28;;;12.44;52.30
3260;BME280;22469;48.150;14.004;2022-11-20T14:37:57;97405.13;;;12.42;52.22
3260;BME280;22469;48.150;14.004;2022-11-20T14:40:25;97401.06;;;12.38;52.14
3260;BME280;22469;48.150;14.004;2022-11-20T14:42:55;97407.03;;;12.39;52.98
3260;BME280;22469;48.150;14.004;2022-11-20T14:45:24;97408.69;;;12.40;54.10
3260;BME280;22469;48.150;14.004;2022-11-20T14:47:53;97406.19;;;12.38;54.17
3260;BME280;22469;48.150;14.004;2022-11-20T14:50:27;97408.97;;;12.33;52.68
3260;BME280;22469;48.150;14.004;2022-11-20T14:53:00;97407.56;;;12.28;53.30
3260;BME280;22469;48.150;14.004;2022-11-20T14:55:32;97409.97;;;12.31;53.65
3260;BME280;22469;48.150;14.004;2022-11-20T14:58:04;97396.44;;;12.27;53.24
3260;BME280;22469;48.150;14.004;2022-11-20T15:00:34;97404.88;;;12.29;52.76
3260;BME280;22469;48.150;14.004;2022-11-20T15:03:01;97400.94;;;12.22;52.74
3260;BME280;22469;48.150;14.004;2022-11-20T15:05:49;97404.59;;;12.18;52.44
3260;BME280;22469;48.150;14.004;2022-11-20T15:08:17;97409.84;;;11.98;52.09